Time;durP1;ratioP1;P1;durP2;ratioP2;P2;SDS_P1;SDS_P2;PMS_P1;PMS_P2;Temp;Humidity;BMP_temperature;BMP_pressure;BME280_temperature;BME280_humidity;BME280_pressure;Samples;Min_cycle;Max_cycle;Signal;HPM_P1;HPM_P2
2021/12/31 00:00:05;;;;;;;;;;;10.60;99.90;;;10.75;73.96;98640.97;5009887;28;19925;-81
2021/12/31 00:02:51;;;;;;;;;;;10.50;99.90;;;10.83;74.19;98642.31;5028286;28;19985;-81
2021/12/31 00:05:17;;;;;;;;;;;10.50;99.90;;;10.90;74.35;98650.94;5009609;28;19979;-81
2021/12/31 00:07:43;;;;;;;;;;;10.50;99.90;;;10.88;73.78;98653.13;5023815;28;20380;-81
2021/12/31 00:10:09;;;;;;;;;;;10.60;99.90;;;10.86;73.59;98658.00;5029694;28;19925;-81
2021/12/31 00:12:36;;;;;;;;;;;10.60;99.90;;;10.72;72.37;98662.44;5023977;28;19924;-81
2021/12/31 00:15:02;;;;;;;;;;;10.40;99.90;;;10.62;72.96;98658.66;5002449;28;19970;-81
2021/12/31 00:17:28;;;;;;;;;;;10.40;99.90;;;10.62;73.75;98663.28;5023578;28;19920;-81
2021/12/31 00:20:07;;;;;;;;;;;10.40;99.90;;;10.70;73.48;98656.47;5040546;28;19994;-81
2021/12/31 00:25:14;;;;;;;;;;;10.50;99.90;;;10.80;74.24;98670.00;5025179;28;19925;-81
2021/12/31 00:27:40;;;;;;;;;;;10.50;99.90;;;10.84;73.84;98666.47;5026803;28;20284;-81
2021/12/31 00:30:06;;;;;;;;;;;10.50;99.90;;;10.88;73.86;98669.41;5008866;28;19921;-81
2021/12/31 00:32:33;;;;;;;;;;;10.50;99.90;;;10.95;74.03;98669.13;5000896;28;19929;-81
2021/12/31 00:34:58;;;;;;;;;;;10.60;99.90;;;10.97;74.32;98666.94;5006248;28;20274;-82
2021/12/31 00:37:31;;;;;;;;;;;10.60;99.90;;;10.97;73.61;98675.91;5021412;28;20005;-81
2021/12/31 00:39:57;;;;;;;;;;;10.70;99.90;;;10.96;73.63;98676.16;5024444;28;20356;-81
2021/12/31 00:42:23;;;;;;;;;;;10.70;99.90;;;10.94;73.22;98678.34;5020738;28;19936;-80
2021/12/31 00:44:49;;;;;;;;;;;10.60;99.90;;;10.86;72.17;98688.72;5023411;28;19932;-81
2021/12/31 00:47:15;;;;;;;;;;;10.60;99.90;;;10.68;71.94;98689.28;5006738;28;20031;-81
2021/12/31 00:49:42;;;;;;;;;;;10.40;99.90;;;10.60;71.13;98690.69;5025004;28;19925;-81
2021/12/31 00:52:07;;;;;;;;;;;10.40;99.90;;;10.46;70.70;98692.38;5022592;28;19924;-81
2021/12/31 00:54:34;;;;;;;;;;;10.20;99.90;;;10.42;70.40;98685.84;4996098;28;19952;-81
2021/12/31 00:57:03;;;;;;;;;;;10.10;99.90;;;10.39;71.71;98691.84;4990887;28;19932;-80
2021/12/31 00:59:32;;;;;;;;;;;10.10;99.90;;;10.31;72.13;98692.41;5013080;28;20062;-81
2021/12/31 01:01:59;;;;;;;;;;;10.00;99.90;;;10.25;71.82;98694.25;5042556;28;19992;-81
2021/12/31 01:04:25;;;;;;;;;;;10.10;99.90;;;10.27;73.21;98694.00;5024818;28;19924;-81
2021/12/31 01:06:51;;;;;;;;;;;9.90;99.90;;;10.32;74.00;98691.31;5025786;28;19932;-81
2021/12/31 01:09:17;;;;;;;;;;;10.00;99.90;;;10.28;74.25;98695.63;4990367;28;20341;-81
2021/12/31 01:11:47;;;;;;;;;;;10.00;99.90;;;10.42;74.53;98694.00;5023691;28;19931;-81
2021/12/31 01:14:27;;;;;;;;;;;10.10;99.90;;;10.49;74.38;98691.81;5020109;28;20372;-81
2021/12/31 01:16:58;;;;;;;;;;;10.20;99.90;;;10.64;75.55;98699.91;5009166;28;19929;-81
2021/12/31 01:21:51;;;;;;;;;;;10.40;99.90;;;10.83;74.99;98691.16;5003010;28;19931;-82
2021/12/31 01:24:18;;;;;;;;;;;10.50;99.90;;;10.96;75.30;98700.59;5022663;28;20388;-82
2021/12/31 01:26:44;;;;;;;;;;;10.60;99.90;;;11.07;74.28;98696.75;5004697;28;20580;-81
2021/12/31 01:29:10;;;;;;;;;;;10.70;99.90;;;11.14;74.00;98702.66;5016853;28;19929;-81
2021/12/31 01:31:37;;;;;;;;;;;10.80;99.90;;;11.11;74.72;98694.28;5043510;28;19924;-82
2021/12/31 01:34:03;;;;;;;;;;;10.80;99.90;;;11.13;74.50;98697.53;5005407;28;20286;-81
2021/12/31 01:36:28;;;;;;;;;;;10.90;99.90;;;11.17;74.21;98701.28;5005238;28;19925;-81
2021/12/31 01:38:54;;;;;;;;;;;10.90;99.90;;;11.17;74.25;98696.69;5006047;28;20293;-81
2021/12/31 01:41:20;;;;;;;;;;;10.90;99.90;;;11.31;73.72;98713.16;5024840;28;20228;-82
2021/12/31 01:43:46;;;;;;;;;;;11.00;99.90;;;11.27;73.11;98712.09;5023353;28;20825;-82
2021/12/31 01:46:13;;;;;;;;;;;10.90;99.90;;;11.30;73.21;98704.22;5010150;28;19972;-82
2021/12/31 01:51:35;;;;;;;;;;;11.00;99.90;;;11.45;73.26;98716.09;5006826;28;20018;-81
2021/12/31 01:54:01;;;;;;;;;;;11.00;99.90;;;11.44;72.88;98712.53;5001141;28;19932;-81
2021/12/31 01:56:27;;;;;;;;;;;11.00;99.90;;;11.49;73.05;98719.84;5008156;28;19925;-81
2021/12/31 01:58:54;;;;;;;;;;;11.10;99.90;;;11.46;72.78;98712.25;5009315;28;19973;-81
2021/12/31 02:01:21;;;;;;;;;;;11.10;99.90;;;11.42;73.04;98697.63;5005753;28;19951;-81
2021/12/31 02:03:47;;;;;;;;;;;11.10;99.90;;;11.49;72.83;98709.78;5012239;28;19929;-81
2021/12/31 02:06:13;;;;;;;;;;;11.10;99.90;;;11.52;73.13;98714.69;5012092;28;19971;-81
2021/12/31 02:08:39;;;;;;;;;;;11.30;99.90;;;11.50;72.81;98714.16;5013843;28;20455;-81
2021/12/31 02:11:04;;;;;;;;;;;11.20;99.90;;;11.44;72.85;98711.72;5008805;28;20368;-82
2021/12/31 02:13:30;;;;;;;;;;;11.20;99.90;;;11.42;73.32;98706.59;5013095;28;19963;-81
2021/12/31 02:15:56;;;;;;;;;;;11.20;99.90;;;11.43;72.91;98710.94;4999369;28;19921;-81
2021/12/31 02:18:22;;;;;;;;;;;11.20;99.90;;;11.54;72.79;98703.50;5029761;28;19924;-81
2021/12/31 02:20:49;;;;;;;;;;;11.10;99.90;;;11.49;72.60;98703.56;5028326;28;20311;-81
2021/12/31 02:23:22;;;;;;;;;;;11.10;99.90;;;11.40;72.88;98703.34;5009060;28;20549;-81
2021/12/31 02:25:47;;;;;;;;;;;11.10;99.90;;;11.43;73.36;98708.22;5034676;28;20283;-81
2021/12/31 02:28:13;;;;;;;;;;;11.10;99.90;;;11.45;73.15;98708.75;5029481;28;20307;-81
2021/12/31 02:30:39;;;;;;;;;;;11.10;99.90;;;11.42;73.07;98713.91;5026924;28;19925;-81
2021/12/31 02:33:05;;;;;;;;;;;11.10;99.90;;;11.47;72.69;98713.88;5044723;28;19921;-81
2021/12/31 02:35:32;;;;;;;;;;;11.10;99.90;;;11.53;72.72;98707.34;4996288;28;20459;-81
2021/12/31 02:37:58;;;;;;;;;;;11.10;99.90;;;11.45;72.59;98713.38;5045963;28;20257;-81
2021/12/31 02:40:24;;;;;;;;;;;11.00;99.90;;;11.47;72.94;98714.72;5016406;28;19946;-81
2021/12/31 02:42:50;;;;;;;;;;;11.00;99.90;;;11.51;73.06;98715.75;5031165;28;19924;-81
2021/12/31 02:45:16;;;;;;;;;;;11.00;99.90;;;11.48;73.06;98713.59;5033152;28;20918;-81
2021/12/31 02:47:45;;;;;;;;;;;11.10;99.90;;;11.52;73.13;98719.28;5000501;28;19925;-81
2021/12/31 02:50:16;;;;;;;;;;;11.10;99.90;;;11.58;72.81;98707.31;5017797;28;19940;-81
2021/12/31 02:52:43;;;;;;;;;;;11.10;99.90;;;11.65;72.52;98715.13;5015602;28;19967;-81
2021/12/31 02:55:10;;;;;;;;;;;11.10;99.90;;;11.64;72.37;98718.94;5013692;28;19928;-81
2021/12/31 02:57:37;;;;;;;;;;;11.10;99.90;;;11.72;72.34;98710.19;5000243;28;20368;-82
2021/12/31 03:00:04;;;;;;;;;;;11.20;99.90;;;11.70;71.78;98712.38;5013735;28;20347;-81
2021/12/31 03:02:29;;;;;;;;;;;11.10;99.90;;;11.69;72.37;98713.47;5031737;28;19920;-81
2021/12/31 03:04:55;;;;;;;;;;;11.20;99.90;;;11.66;72.79;98717.56;5015096;28;20374;-81
2021/12/31 03:07:21;;;;;;;;;;;11.20;99.90;;;11.53;73.12;98715.50;5013199;28;20354;-81
2021/12/31 03:09:48;;;;;;;;;;;11.10;99.90;;;11.56;73.37;98720.34;5015711;28;19925;-81
2021/12/31 03:12:14;;;;;;;;;;;11.20;99.90;;;11.62;72.87;98713.78;5012974;28;19925;-81
2021/12/31 03:14:43;;;;;;;;;;;11.20;99.90;;;11.64;72.81;98716.22;5016304;28;19929;-81
2021/12/31 03:17:09;;;;;;;;;;;11.30;99.90;;;11.68;72.69;98720.00;5014498;28;19932;-81
2021/12/31 03:19:36;;;;;;;;;;;11.20;99.90;;;11.72;72.37;98723.75;5015216;28;20451;-81
2021/12/31 03:22:02;;;;;;;;;;;11.30;99.90;;;11.83;72.40;98725.31;5013609;28;19974;-81
2021/12/31 03:24:28;;;;;;;;;;;11.30;99.90;;;11.71;71.29;98717.53;5012270;28;19933;-81
2021/12/31 03:26:54;;;;;;;;;;;11.20;99.90;;;11.58;72.16;98734.47;5016596;28;19928;-81
2021/12/31 03:29:20;;;;;;;;;;;11.20;99.90;;;11.58;72.19;98736.38;5015396;28;20288;-81
2021/12/31 03:31:46;;;;;;;;;;;11.20;99.90;;;11.51;71.44;98732.06;5009429;28;19924;-81
2021/12/31 03:34:14;;;;;;;;;;;11.10;99.90;;;11.51;71.80;98734.78;5014282;28;19951;-82
2021/12/31 03:36:43;;;;;;;;;;;11.10;99.90;;;11.48;71.54;98735.34;5028021;28;20348;-82
2021/12/31 03:39:09;;;;;;;;;;;10.90;99.90;;;11.51;71.98;98737.50;5030937;28;19921;-82
2021/12/31 03:41:35;;;;;;;;;;;11.00;99.90;;;11.47;70.85;98741.03;5002072;28;20395;-82
2021/12/31 03:44:01;;;;;;;;;;;10.90;99.90;;;11.25;72.13;98731.41;5045580;28;19988;-82
2021/12/31 03:46:27;;;;;;;;;;;10.90;99.90;;;11.31;70.77;98737.59;5027938;28;20376;-82
2021/12/31 03:48:53;;;;;;;;;;;10.70;99.90;;;11.30;70.26;98736.81;5031598;28;19924;-82
2021/12/31 03:51:19;;;;;;;;;;;10.70;99.90;;;11.27;69.84;98737.38;5027959;28;19932;-81
2021/12/31 03:53:44;;;;;;;;;;;10.60;99.90;;;11.12;70.50;98740.16;5016807;28;19928;-81
2021/12/31 03:56:10;;;;;;;;;;;10.50;99.90;;;11.16;70.30;98732.25;5026581;28;19968;-81
2021/12/31 03:58:36;;;;;;;;;;;10.50;99.90;;;11.15;70.61;98738.78;5015461;28;19928;-82
2021/12/31 04:01:02;;;;;;;;;;;10.40;99.90;;;10.98;70.83;98730.97;5014853;28;19944;-81
2021/12/31 04:03:28;;;;;;;;;;;10.40;99.90;;;10.99;70.93;98738.84;5013614;28;19985;-81
2021/12/31 04:05:54;;;;;;;;;;;10.40;99.90;;;10.98;71.59;98737.22;5007796;28;19927;-81
2021/12/31 04:08:20;;;;;;;;;;;10.40;99.90;;;10.92;71.18;98740.25;5029277;28;19936;-81
2021/12/31 04:10:46;;;;;;;;;;;10.30;99.90;;;10.95;71.29;98743.19;5027017;28;19925;-81
2021/12/31 04:13:12;;;;;;;;;;;10.30;99.90;;;10.88;70.75;98750.81;4997021;28;20417;-81
2021/12/31 04:15:38;;;;;;;;;;;10.30;99.90;;;10.85;70.53;98751.38;5026901;28;19925;-81
2021/12/31 04:18:04;;;;;;;;;;;10.30;99.90;;;10.82;71.14;98755.47;5017348;28;20569;-81
2021/12/31 04:20:39;;;;;;;;;;;10.30;99.90;;;10.86;71.38;98750.28;5011342;28;19928;-81
2021/12/31 04:23:25;;;;;;;;;;;10.30;99.90;;;10.79;71.16;98755.22;4998398;28;19967;-81
2021/12/31 04:25:51;;;;;;;;;;;10.30;99.90;;;10.73;72.20;98746.25;5014926;28;19920;-81
2021/12/31 04:28:17;;;;;;;;;;;10.20;99.90;;;10.68;72.26;98759.03;5010365;28;20445;-81
2021/12/31 04:30:42;;;;;;;;;;;10.20;99.90;;;10.68;72.23;98753.59;5037633;28;19975;-81
2021/12/31 04:33:08;;;;;;;;;;;10.20;99.90;;;10.70;72.38;98759.56;5010723;28;20287;-81
2021/12/31 04:35:34;;;;;;;;;;;10.20;99.90;;;10.69;72.96;98750.63;5027358;28;20450;-81
2021/12/31 04:38:00;;;;;;;;;;;10.20;99.90;;;10.73;73.55;98751.69;5028445;28;19921;-81
2021/12/31 04:40:26;;;;;;;;;;;10.20;99.90;;;10.81;73.05;98762.00;5010034;28;19931;-81
2021/12/31 04:42:52;;;;;;;;;;;10.30;99.90;;;10.84;72.81;98747.88;5027026;28;19920;-81
2021/12/31 04:45:18;;;;;;;;;;;10.30;99.90;;;10.87;72.94;98746.50;5027948;28;20423;-81
2021/12/31 04:47:44;;;;;;;;;;;10.30;99.90;;;10.91;73.56;98744.03;5015599;28;20368;-81
2021/12/31 04:50:10;;;;;;;;;;;10.40;99.90;;;11.06;74.33;98731.19;5012531;28;20402;-81
2021/12/31 04:52:36;;;;;;;;;;;10.50;99.90;;;11.23;74.72;98740.91;5012841;28;19920;-81
2021/12/31 04:55:02;;;;;;;;;;;10.60;99.90;;;11.39;74.10;98736.22;4999042;28;19936;-81
2021/12/31 04:57:28;;;;;;;;;;;10.70;99.90;;;11.42;73.93;98739.19;4998229;28;19925;-81
2021/12/31 04:59:54;;;;;;;;;;;10.80;99.90;;;11.58;74.16;98739.09;5018752;28;19921;-81
2021/12/31 05:02:20;;;;;;;;;;;10.90;99.90;;;11.64;74.03;98741.47;5026139;28;20383;-81
2021/12/31 05:04:46;;;;;;;;;;;11.00;99.90;;;11.71;73.91;98743.91;5027829;28;19920;-81
2021/12/31 05:07:12;;;;;;;;;;;11.20;99.90;;;11.72;73.67;98750.94;4998178;28;20018;-81
2021/12/31 05:09:38;;;;;;;;;;;11.20;99.90;;;11.84;73.54;98735.09;5028674;28;19924;-81
2021/12/31 05:12:05;;;;;;;;;;;11.20;99.90;;;11.85;73.30;98734.00;5011972;28;20186;-81
2021/12/31 05:14:31;;;;;;;;;;;11.30;99.90;;;11.80;73.38;98728.59;5027145;28;19964;-81
2021/12/31 05:16:58;;;;;;;;;;;11.30;99.90;;;11.83;73.39;98724.50;4997164;28;20265;-81
2021/12/31 05:19:24;;;;;;;;;;;11.30;99.90;;;11.83;73.46;98730.75;5010450;28;19931;-81
2021/12/31 05:21:50;;;;;;;;;;;11.40;99.90;;;11.94;73.06;98726.09;5022890;28;20448;-81
2021/12/31 05:24:16;;;;;;;;;;;11.40;99.90;;;11.92;73.11;98731.78;5010781;28;19947;-81
2021/12/31 05:26:43;;;;;;;;;;;11.40;99.90;;;11.88;72.81;98738.91;5025854;28;19987;-82
2021/12/31 05:29:09;;;;;;;;;;;11.40;99.90;;;11.93;72.65;98730.72;5010953;28;20376;-81
2021/12/31 05:31:35;;;;;;;;;;;11.40;99.90;;;11.94;72.76;98729.59;5026129;28;19932;-81
2021/12/31 05:34:01;;;;;;;;;;;11.40;99.90;;;11.94;73.10;98731.53;5025934;28;20036;-81
2021/12/31 05:36:26;;;;;;;;;;;11.40;99.90;;;12.00;73.03;98730.38;4993129;28;19931;-81
2021/12/31 05:38:52;;;;;;;;;;;11.40;99.90;;;12.03;72.83;98726.28;5026234;28;20062;-82
2021/12/31 05:41:18;;;;;;;;;;;11.50;99.90;;;12.07;72.88;98720.00;5014124;28;20015;-81
2021/12/31 05:43:44;;;;;;;;;;;11.50;99.90;;;12.15;72.72;98726.72;5029242;28;20276;-83
2021/12/31 05:46:11;;;;;;;;;;;11.50;99.90;;;12.14;72.84;98719.66;5015744;28;19921;-82
2021/12/31 05:48:37;;;;;;;;;;;11.60;99.90;;;12.10;72.58;98727.56;5028238;28;20044;-83
2021/12/31 05:51:03;;;;;;;;;;;11.60;99.90;;;12.10;73.17;98726.75;5015087;28;19936;-82
2021/12/31 05:53:29;;;;;;;;;;;11.60;99.90;;;12.10;72.67;98726.75;5014027;28;19968;-82
2021/12/31 05:55:55;;;;;;;;;;;11.70;99.90;;;12.17;72.59;98727.25;5015183;28;19928;-83
2021/12/31 05:58:21;;;;;;;;;;;11.70;99.90;;;12.13;72.50;98735.16;5029309;28;20259;-82
2021/12/31 06:00:47;;;;;;;;;;;11.70;99.90;;;12.17;72.70;98738.13;5013365;28;19925;-82
2021/12/31 06:03:13;;;;;;;;;;;11.70;99.90;;;12.20;72.06;98740.25;5010191;28;19929;-82
2021/12/31 06:05:39;;;;;;;;;;;11.80;99.90;;;12.28;71.81;98734.19;5026395;28;19970;-82
2021/12/31 06:08:05;;;;;;;;;;;11.80;99.90;;;12.25;71.65;98742.94;5017399;28;20384;-82
2021/12/31 06:10:32;;;;;;;;;;;11.80;99.90;;;12.28;71.94;98747.00;5016739;28;20016;-82
2021/12/31 06:12:59;;;;;;;;;;;11.80;99.90;;;12.25;72.06;98748.38;5033113;28;19920;-82
2021/12/31 06:15:26;;;;;;;;;;;11.80;99.90;;;12.30;71.53;98742.09;5030329;28;20310;-82
2021/12/31 06:17:52;;;;;;;;;;;11.80;99.90;;;12.30;71.70;98745.63;5020922;28;19924;-82
2021/12/31 06:20:17;;;;;;;;;;;11.80;99.90;;;12.37;70.88;98750.72;5030339;28;20406;-82
2021/12/31 06:22:43;;;;;;;;;;;11.80;99.90;;;12.37;71.38;98751.53;5029827;28;19925;-82
2021/12/31 06:25:10;;;;;;;;;;;11.90;99.90;;;12.39;71.27;98756.69;5014838;28;20612;-82
2021/12/31 06:27:35;;;;;;;;;;;11.90;99.90;;;12.44;70.97;98761.25;5047655;28;19925;-82
2021/12/31 06:30:03;;;;;;;;;;;11.90;99.90;;;12.44;71.19;98763.97;5015411;28;19925;-82
2021/12/31 06:32:29;;;;;;;;;;;11.90;99.90;;;12.44;71.06;98763.97;5027966;28;20141;-82
2021/12/31 06:34:55;;;;;;;;;;;11.90;99.90;;;12.43;71.23;98765.91;5022570;28;19925;-82
2021/12/31 06:37:20;;;;;;;;;;;11.90;99.90;;;12.50;71.07;98771.81;5014614;28;19928;-82
2021/12/31 06:39:47;;;;;;;;;;;11.90;99.90;;;12.51;70.83;98778.06;5032559;28;19952;-82
2021/12/31 06:42:13;;;;;;;;;;;11.90;99.90;;;12.47;70.72;98777.03;4997049;28;19956;-82
2021/12/31 06:44:41;;;;;;;;;;;11.90;99.90;;;12.04;72.13;98782.28;5002148;28;19931;-82
2021/12/31 06:47:08;;;;;;;;;;;11.90;99.90;;;12.00;72.47;98779.31;5015768;28;19984;-82
2021/12/31 06:49:33;;;;;;;;;;;11.90;99.90;;;12.04;72.44;98780.38;5017475;28;19951;-82
2021/12/31 06:51:59;;;;;;;;;;;12.00;99.90;;;12.00;72.77;98784.75;5032233;28;19925;-82
2021/12/31 06:54:25;;;;;;;;;;;12.00;99.90;;;12.03;72.40;98778.72;5032588;28;20314;-82
2021/12/31 06:56:51;;;;;;;;;;;12.00;99.90;;;12.03;72.38;98784.16;5000241;28;19925;-82
2021/12/31 06:59:17;;;;;;;;;;;12.00;99.90;;;11.99;72.76;98777.69;5032811;28;19941;-82
2021/12/31 07:01:43;;;;;;;;;;;12.00;99.90;;;12.00;72.54;98786.66;5000459;28;19925;-82
2021/12/31 07:04:10;;;;;;;;;;;12.00;99.90;;;12.00;72.33;98781.22;5002877;28;19931;-82
2021/12/31 07:06:35;;;;;;;;;;;12.00;99.90;;;11.98;72.46;98784.22;5012475;28;19921;-82
2021/12/31 07:09:01;;;;;;;;;;;12.00;99.90;;;11.99;72.55;98776.88;5034789;28;20379;-82
2021/12/31 07:11:27;;;;;;;;;;;12.00;99.90;;;11.97;72.72;98784.50;5017404;28;19925;-82
2021/12/31 07:13:53;;;;;;;;;;;12.10;99.90;;;12.04;72.34;98782.28;5028847;28;19924;-83
2021/12/31 07:16:19;;;;;;;;;;;12.00;99.90;;;12.08;72.58;98777.88;5023240;28;20011;-82
2021/12/31 07:18:45;;;;;;;;;;;12.00;99.90;;;12.07;72.27;98785.25;4998041;28;19928;-82
2021/12/31 07:21:11;;;;;;;;;;;12.10;99.90;;;12.09;72.40;98793.94;5016962;28;19921;-82
2021/12/31 07:23:37;;;;;;;;;;;12.10;99.90;;;12.13;72.20;98794.16;5029743;28;19956;-82
2021/12/31 07:26:03;;;;;;;;;;;12.10;99.90;;;12.11;72.13;98790.91;5025699;28;19921;-82
2021/12/31 07:28:29;;;;;;;;;;;12.10;99.90;;;12.11;72.36;98807.22;5027468;28;19951;-82
2021/12/31 07:30:55;;;;;;;;;;;12.00;99.90;;;12.11;72.14;98793.63;5010163;28;19921;-82
2021/12/31 07:33:22;;;;;;;;;;;12.10;99.90;;;12.11;72.05;98793.63;5008170;28;20122;-82
2021/12/31 07:35:49;;;;;;;;;;;12.10;99.90;;;12.08;72.11;98789.56;5002635;28;19947;-82
2021/12/31 07:38:20;;;;;;;;;;;12.10;99.90;;;12.03;72.57;98794.25;5008117;28;19940;-82
2021/12/31 07:40:47;;;;;;;;;;;12.10;99.90;;;12.03;72.61;98802.41;5008902;28;19965;-82
2021/12/31 07:43:14;;;;;;;;;;;12.00;99.90;;;12.08;72.61;98807.78;5008583;28;19928;-82
2021/12/31 07:45:41;;;;;;;;;;;12.00;99.90;;;12.11;71.96;98812.66;5006474;28;20361;-82
2021/12/31 07:48:06;;;;;;;;;;;12.10;99.90;;;12.12;72.45;98814.31;4991497;28;19932;-82
2021/12/31 07:50:32;;;;;;;;;;;12.10;99.90;;;12.21;71.86;98809.88;5008145;28;20380;-82
2021/12/31 07:52:58;;;;;;;;;;;12.10;99.90;;;12.20;71.69;98818.31;4992343;28;19981;-82
2021/12/31 07:55:24;;;;;;;;;;;12.10;99.90;;;12.19;72.30;98817.53;5006219;28;19924;-82
2021/12/31 07:57:50;;;;;;;;;;;12.20;99.90;;;12.22;72.24;98807.97;5021999;28;20034;-82
2021/12/31 08:00:16;;;;;;;;;;;12.10;99.90;;;12.27;72.43;98816.91;4991117;28;19964;-81
2021/12/31 08:02:42;;;;;;;;;;;12.20;99.90;;;12.29;71.96;98801.13;5008858;28;19964;-82
2021/12/31 08:05:08;;;;;;;;;;;12.20;99.90;;;12.22;72.05;98803.34;5003841;28;19929;-82
2021/12/31 08:07:34;;;;;;;;;;;12.20;99.90;;;12.20;72.32;98821.03;5022963;28;19929;-82
2021/12/31 08:10:00;;;;;;;;;;;12.30;99.90;;;12.22;72.22;98827.81;5012081;28;20007;-82
2021/12/31 08:12:25;;;;;;;;;;;12.20;99.90;;;12.26;72.14;98833.50;5023305;28;20312;-82
2021/12/31 08:14:52;;;;;;;;;;;12.20;99.90;;;12.27;72.04;98833.22;5026055;28;19932;-82
2021/12/31 08:17:17;;;;;;;;;;;12.30;99.90;;;12.31;72.35;98822.56;5006944;28;20406;-82
2021/12/31 08:19:43;;;;;;;;;;;12.30;99.90;;;12.30;72.27;98819.06;5019623;28;19921;-82
2021/12/31 08:22:09;;;;;;;;;;;12.30;99.90;;;12.30;72.18;98823.69;5010261;28;19931;-82
2021/12/31 08:24:35;;;;;;;;;;;12.30;99.90;;;12.29;72.24;98832.94;5005839;28;20357;-82
2021/12/31 08:27:01;;;;;;;;;;;12.30;99.90;;;12.28;72.04;98820.44;5024965;28;19929;-82
2021/12/31 08:29:27;;;;;;;;;;;12.30;99.90;;;12.37;71.98;98832.34;5020801;28;19925;-82
2021/12/31 08:31:53;;;;;;;;;;;12.30;99.90;;;12.38;71.95;98837.47;5008535;28;20007;-82
2021/12/31 08:34:18;;;;;;;;;;;12.30;99.90;;;12.40;72.20;98826.31;5010581;28;19932;-82
2021/12/31 08:36:44;;;;;;;;;;;12.40;99.90;;;12.42;72.07;98837.72;5008560;28;19983;-82
2021/12/31 08:39:10;;;;;;;;;;;12.40;99.90;;;12.42;72.17;98834.22;4990774;28;20330;-82
2021/12/31 08:41:37;;;;;;;;;;;12.40;99.90;;;12.42;71.82;98828.75;4993418;28;19925;-82
2021/12/31 08:44:04;;;;;;;;;;;12.50;99.90;;;12.46;72.09;98829.81;5021319;28;19965;-82
2021/12/31 08:46:31;;;;;;;;;;;12.40;99.90;;;12.55;71.86;98836.25;4999606;28;19936;-82
2021/12/31 08:48:56;;;;;;;;;;;12.50;99.90;;;12.62;71.41;98836.75;5007575;28;19925;-82
2021/12/31 08:51:24;;;;;;;;;;;12.50;99.90;;;12.60;71.64;98842.47;5009230;28;19994;-82
2021/12/31 08:53:50;;;;;;;;;;;12.50;99.90;;;12.60;71.77;98844.38;5022562;28;19928;-82
2021/12/31 08:56:16;;;;;;;;;;;12.60;99.90;;;12.63;71.88;98848.44;5033395;28;19932;-82
2021/12/31 08:58:42;;;;;;;;;;;12.60;99.90;;;12.62;71.63;98849.53;5023305;28;19920;-82
2021/12/31 09:01:08;;;;;;;;;;;12.60;99.90;;;12.67;71.36;98847.59;5021770;28;19952;-82
2021/12/31 09:03:34;;;;;;;;;;;12.50;99.90;;;12.60;71.19;98847.91;5037240;28;21246;-82
2021/12/31 09:06:00;;;;;;;;;;;12.60;99.90;;;12.59;71.41;98845.47;5005349;28;19979;-82
2021/12/31 09:08:25;;;;;;;;;;;12.60;99.90;;;12.64;71.15;98839.97;4991090;28;19925;-82
2021/12/31 09:10:51;;;;;;;;;;;12.60;99.90;;;12.72;70.89;98838.53;5002195;28;19932;-81
2021/12/31 09:13:17;;;;;;;;;;;12.70;99.90;;;12.82;70.63;98855.63;5006808;28;19926;-81
2021/12/31 09:15:43;;;;;;;;;;;12.70;99.90;;;12.92;70.54;98846.50;5023527;28;19929;-82
2021/12/31 09:18:09;;;;;;;;;;;12.80;99.90;;;12.97;70.51;98842.94;4990710;28;19932;-82
2021/12/31 09:20:36;;;;;;;;;;;12.90;99.90;;;12.98;70.42;98847.28;5003655;28;19943;-82
2021/12/31 09:23:02;;;;;;;;;;;12.90;99.90;;;13.09;69.88;98846.06;5002267;28;20426;-81
2021/12/31 09:25:28;;;;;;;;;;;13.20;99.90;;;13.19;69.45;98847.88;5020022;28;20304;-81
2021/12/31 09:27:54;;;;;;;;;;;13.10;99.90;;;13.19;69.07;98845.16;4990379;28;20472;-81
2021/12/31 09:30:20;;;;;;;;;;;13.20;99.90;;;13.23;69.08;98854.38;5021654;28;19925;-83
2021/12/31 09:32:46;;;;;;;;;;;13.20;99.90;;;13.27;69.34;98855.44;5018419;28;19996;-82
2021/12/31 09:35:12;;;;;;;;;;;13.30;99.90;;;13.21;68.94;98854.66;5007145;28;19921;-82
2021/12/31 09:37:38;;;;;;;;;;;13.30;99.90;;;13.18;69.23;98863.41;4992278;28;19921;-82
2021/12/31 09:40:05;;;;;;;;;;;13.20;99.90;;;13.19;69.45;98866.94;5026065;28;20376;-82
2021/12/31 09:42:31;;;;;;;;;;;13.20;99.90;;;13.12;69.58;98869.19;5025500;28;19931;-82
2021/12/31 09:44:57;;;;;;;;;;;13.20;99.90;;;13.06;69.27;98863.00;5015552;28;19925;-81
2021/12/31 09:47:22;;;;;;;;;;;13.10;99.90;;;13.11;69.13;98856.69;5023324;28;19924;-81
2021/12/31 09:49:48;;;;;;;;;;;13.10;99.90;;;13.06;69.44;98862.19;5026538;28;20010;-81
2021/12/31 09:52:15;;;;;;;;;;;13.10;99.90;;;13.03;69.36;98858.13;5009401;28;19925;-81
2021/12/31 09:54:42;;;;;;;;;;;13.10;99.90;;;13.12;69.01;98852.84;5007982;28;19957;-81
2021/12/31 09:57:18;;;;;;;;;;;13.10;99.90;;;13.20;68.79;98854.94;5009905;28;19925;-82
2021/12/31 09:59:46;;;;;;;;;;;13.20;99.90;;;13.30;68.63;98848.59;5028064;28;20406;-82
2021/12/31 10:02:12;;;;;;;;;;;13.30;99.90;;;13.35;68.33;98856.72;5026359;28;19986;-82
2021/12/31 10:04:59;;;;;;;;;;;13.20;99.90;;;13.48;67.93;98852.47;5009133;28;20319;-82
2021/12/31 10:07:28;;;;;;;;;;;13.40;99.90;;;13.51;67.78;98854.59;5009978;28;20419;-81
2021/12/31 10:10:03;;;;;;;;;;;13.50;99.90;;;13.39;67.41;98849.59;5001152;28;19982;-82
2021/12/31 10:12:56;;;;;;;;;;;13.50;99.90;;;13.42;67.55;98844.34;5025544;28;19926;-82
2021/12/31 10:15:24;;;;;;;;;;;13.40;99.90;;;13.51;67.62;98854.59;5025307;28;19921;-82
2021/12/31 10:17:50;;;;;;;;;;;13.50;99.90;;;13.62;67.26;98848.75;5026992;28;20039;-81
2021/12/31 10:20:17;;;;;;;;;;;13.60;99.90;;;13.75;66.72;98844.50;5019796;28;19925;-82
2021/12/31 10:22:44;;;;;;;;;;;13.80;99.90;;;13.81;66.37;98843.31;5013593;28;20201;-82
2021/12/31 10:25:21;;;;;;;;;;;13.80;99.90;;;13.93;65.81;98840.16;5012191;28;19925;-82
2021/12/31 10:27:53;;;;;;;;;;;14.00;99.90;;;14.14;65.45;98834.38;5007637;28;20364;-82
2021/12/31 10:30:22;;;;;;;;;;;14.10;99.90;;;14.26;64.89;98830.09;5019517;28;20316;-81
2021/12/31 10:32:50;;;;;;;;;;;14.30;99.90;;;14.46;64.47;98837.16;5010524;28;19932;-82
2021/12/31 10:35:20;;;;;;;;;;;14.50;99.90;;;14.51;64.43;98839.78;5010882;28;20425;-82
2021/12/31 10:37:49;;;;;;;;;;;14.60;99.90;;;14.49;64.37;98824.81;5027201;28;19933;-82
2021/12/31 10:40:45;;;;;;;;;;;14.60;99.90;;;14.52;64.10;98822.31;5021889;28;19925;-82
2021/12/31 10:43:23;;;;;;;;;;;14.60;99.90;;;14.59;63.61;98821.16;5024034;28;19925;-82
2021/12/31 10:45:59;;;;;;;;;;;14.70;99.90;;;14.59;63.87;98819.22;5002245;28;19925;-83
2021/12/31 10:48:48;;;;;;;;;;;14.70;99.90;;;14.64;63.73;98815.59;5024739;28;19929;-81
2021/12/31 10:51:19;;;;;;;;;;;14.70;99.90;;;14.70;63.59;98817.13;5015077;28;19929;-81
2021/12/31 10:53:54;;;;;;;;;;;14.80;99.90;;;14.84;63.01;98825.34;5010248;28;19922;-83
2021/12/31 10:56:21;;;;;;;;;;;14.90;99.90;;;14.77;62.78;98809.34;5008076;28;19932;-80
2021/12/31 10:58:56;;;;;;;;;;;14.80;99.90;;;14.57;63.52;98813.25;4992600;28;19925;-81
2021/12/31 11:01:22;;;;;;;;;;;14.80;99.90;;;14.46;63.66;98806.31;5005408;28;19925;-81
2021/12/31 11:03:48;;;;;;;;;;;14.60;99.90;;;14.27;63.72;98807.19;5021888;28;19921;-81
2021/12/31 11:06:14;;;;;;;;;;;14.50;99.90;;;14.20;64.48;98801.28;5025005;28;20265;-80
2021/12/31 11:08:45;;;;;;;;;;;14.30;99.90;;;14.25;65.24;98800.41;5006387;28;21158;-81
2021/12/31 11:11:13;;;;;;;;;;;14.30;99.90;;;14.26;65.22;98799.28;5008460;28;19925;-81
2021/12/31 11:13:39;;;;;;;;;;;14.30;99.90;;;14.29;65.18;98793.22;5007536;28;20316;-81
2021/12/31 11:16:05;;;;;;;;;;;14.30;99.90;;;14.32;64.87;98793.47;4988722;28;20002;-81
2021/12/31 11:18:31;;;;;;;;;;;14.30;99.90;;;14.41;65.35;98798.22;5010903;28;19987;-81
2021/12/31 11:21:03;;;;;;;;;;;14.30;99.90;;;14.40;65.08;98789.25;5029237;28;19936;-80
2021/12/31 11:23:33;;;;;;;;;;;14.40;99.90;;;14.40;65.36;98794.69;5008299;28;20394;-80